sensor_id;sensor_type;location;lat;lon;timestamp;temperature;humidity
1570;DHT22;778;50.120;8.698;2023-05-20T00:01:28;14.30;99.90
1570;DHT22;778;50.120;8.698;2023-05-20T00:03:56;14.40;99.90
1570;DHT22;778;50.120;8.698;2023-05-20T00:06:25;14.40;99.90
1570;DHT22;778;50.120;8.698;2023-05-20T00:08:54;14.30;99.90
1570;DHT22;778;50.120;8.698;2023-05-20T00:11:22;14.40;99.90
1570;DHT22;778;50.120;8.698;2023-05-20T00:13:51;14.40;99.90
1570;DHT22;778;50.120;8.698;2023-05-20T00:16:20;14.40;99.90
1570;DHT22;778;50.120;8.698;2023-05-20T00:18:49;14.30;99.90
1570;DHT22;778;50.120;8.698;2023-05-20T00:21:17;14.40;99.90
1570;DHT22;778;50.120;8.698;2023-05-20T00:23:46;14.40;99.90
1570;DHT22;778;50.120;8.698;2023-05-20T00:26:14;14.40;99.90
1570;DHT22;778;50.120;8.698;2023-05-20T00:28:47;14.30;99.90
1570;DHT22;778;50.120;8.698;2023-05-20T00:31:15;14.30;99.90
1570;DHT22;778;50.120;8.698;2023-05-20T00:33:45;14.30;99.90
1570;DHT22;778;50.120;8.698;2023-05-20T00:36:14;14.30;99.90
1570;DHT22;778;50.120;8.698;2023-05-20T00:38:42;14.30;99.90
1570;DHT22;778;50.120;8.698;2023-05-20T00:41:11;14.20;99.90
1570;DHT22;778;50.120;8.698;2023-05-20T00:43:39;14.20;99.90
1570;DHT22;778;50.120;8.698;2023-05-20T00:46:09;14.10;99.90
1570;DHT22;778;50.120;8.698;2023-05-20T00:48:40;14.20;99.90
1570;DHT22;778;50.120;8.698;2023-05-20T00:51:12;14.10;99.90
1570;DHT22;778;50.120;8.698;2023-05-20T00:53:42;14.10;99.90
1570;DHT22;778;50.120;8.698;2023-05-20T00:56:11;14.00;99.90
1570;DHT22;778;50.120;8.698;2023-05-20T00:58:40;14.00;99.90
1570;DHT22;778;50.120;8.698;2023-05-20T01:01:08;14.00;99.90
1570;DHT22;778;50.120;8.698;2023-05-20T01:03:37;13.90;99.90
1570;DHT22;778;50.120;8.698;2023-05-20T01:06:06;13.90;99.90
1570;DHT22;778;50.120;8.698;2023-05-20T01:08:35;13.90;99.90
1570;DHT22;778;50.120;8.698;2023-05-20T01:11:08;13.80;99.90
1570;DHT22;778;50.120;8.698;2023-05-20T01:13:45;13.80;99.90
1570;DHT22;778;50.120;8.698;2023-05-20T01:16:16;13.80;99.90
1570;DHT22;778;50.120;8.698;2023-05-20T01:18:46;13.70;99.90
1570;DHT22;778;50.120;8.698;2023-05-20T01:21:16;13.80;99.90
1570;DHT22;778;50.120;8.698;2023-05-20T01:23:48;13.70;99.90
1570;DHT22;778;50.120;8.698;2023-05-20T01:26:17;13.70;99.90
1570;DHT22;778;50.120;8.698;2023-05-20T01:28:47;13.70;99.90
1570;DHT22;778;50.120;8.698;2023-05-20T01:31:22;13.70;99.90
1570;DHT22;778;50.120;8.698;2023-05-20T01:33:55;13.70;99.90
1570;DHT22;778;50.120;8.698;2023-05-20T01:36:25;13.70;99.90
1570;DHT22;778;50.120;8.698;2023-05-20T01:38:56;13.70;99.90
1570;DHT22;778;50.120;8.698;2023-05-20T01:41:26;13.70;99.90
1570;DHT22;778;50.120;8.698;2023-05-20T01:43:56;13.60;99.90
1570;DHT22;778;50.120;8.698;2023-05-20T01:46:25;13.50;99.90
1570;DHT22;778;50.120;8.698;2023-05-20T01:48:53;13.50;99.90
1570;DHT22;778;50.120;8.698;2023-05-20T01:51:22;13.50;99.90
1570;DHT22;778;50.120;8.698;2023-05-20T01:53:50;13.50;99.90
1570;DHT22;778;50.120;8.698;2023-05-20T01:56:20;13.50;99.90
1570;DHT22;778;50.120;8.698;2023-05-20T01:58:49;13.50;99.90
1570;DHT22;778;50.120;8.698;2023-05-20T02:01:17;13.50;99.90
1570;DHT22;778;50.120;8.698;2023-05-20T02:03:46;13.60;99.90
1570;DHT22;778;50.120;8.698;2023-05-20T02:06:14;13.60;99.90
1570;DHT22;778;50.120;8.698;2023-05-20T02:08:43;13.60;99.90
1570;DHT22;778;50.120;8.698;2023-05-20T02:11:11;13.60;99.90
1570;DHT22;778;50.120;8.698;2023-05-20T02:13:41;13.60;99.90
1570;DHT22;778;50.120;8.698;2023-05-20T02:16:09;13.60;99.90
1570;DHT22;778;50.120;8.698;2023-05-20T02:18:38;13.60;99.90
1570;DHT22;778;50.120;8.698;2023-05-20T02:21:08;13.60;99.90
1570;DHT22;778;50.120;8.698;2023-05-20T02:23:37;13.60;99.90
1570;DHT22;778;50.120;8.698;2023-05-20T02:26:05;13.50;99.90
1570;DHT22;778;50.120;8.698;2023-05-20T02:28:35;13.60;99.90
1570;DHT22;778;50.120;8.698;2023-05-20T02:31:07;13.50;99.90
1570;DHT22;778;50.120;8.698;2023-05-20T02:33:36;13.60;99.90
1570;DHT22;778;50.120;8.698;2023-05-20T02:36:05;13.50;99.90
1570;DHT22;778;50.120;8.698;2023-05-20T02:38:34;13.60;99.90
1570;DHT22;778;50.120;8.698;2023-05-20T02:41:03;13.70;99.90
1570;DHT22;778;50.120;8.698;2023-05-20T02:43:32;13.60;99.90
1570;DHT22;778;50.120;8.698;2023-05-20T02:46:02;13.60;99.90
1570;DHT22;778;50.120;8.698;2023-05-20T02:48:33;13.60;99.90
1570;DHT22;778;50.120;8.698;2023-05-20T02:51:02;13.70;99.90
1570;DHT22;778;50.120;8.698;2023-05-20T02:53:30;13.60;99.90
1570;DHT22;778;50.120;8.698;2023-05-20T02:55:59;13.70;99.90
1570;DHT22;778;50.120;8.698;2023-05-20T02:58:28;13.70;99.90
1570;DHT22;778;50.120;8.698;2023-05-20T03:00:57;13.80;99.90
1570;DHT22;778;50.120;8.698;2023-05-20T03:03:26;13.70;99.90
1570;DHT22;778;50.120;8.698;2023-05-20T03:05:56;13.70;99.90
1570;DHT22;778;50.120;8.698;2023-05-20T03:08:24;13.70;99.90
1570;DHT22;778;50.120;8.698;2023-05-20T03:10:53;13.70;99.90
1570;DHT22;778;50.120;8.698;2023-05-20T03:13:21;13.70;99.90
1570;DHT22;778;50.120;8.698;2023-05-20T03:15:50;13.70;99.90
1570;DHT22;778;50.120;8.698;2023-05-20T03:18:18;13.70;99.90
1570;DHT22;778;50.120;8.698;2023-05-20T03:20:46;13.70;99.90
1570;DHT22;778;50.120;8.698;2023-05-20T03:23:16;13.60;99.90
1570;DHT22;778;50.120;8.698;2023-05-20T03:25:45;13.60;99.90
1570;DHT22;778;50.120;8.698;2023-05-20T03:28:13;13.60;99.90
1570;DHT22;778;50.120;8.698;2023-05-20T03:30:42;13.70;99.90
1570;DHT22;778;50.120;8.698;2023-05-20T03:33:11;13.60;99.90
1570;DHT22;778;50.120;8.698;2023-05-20T03:35:40;13.60;99.90
1570;DHT22;778;50.120;8.698;2023-05-20T03:38:08;13.50;99.90
1570;DHT22;778;50.120;8.698;2023-05-20T03:40:40;13.60;99.90
1570;DHT22;778;50.120;8.698;2023-05-20T03:43:08;13.60;99.90
1570;DHT22;778;50.120;8.698;2023-05-20T03:45:36;13.60;99.90
1570;DHT22;778;50.120;8.698;2023-05-20T03:48:06;13.60;99.90
1570;DHT22;778;50.120;8.698;2023-05-20T03:50:35;13.50;99.90
1570;DHT22;778;50.120;8.698;2023-05-20T03:53:03;13.60;99.90
1570;DHT22;778;50.120;8.698;2023-05-20T03:55:37;13.50;99.90
1570;DHT22;778;50.120;8.698;2023-05-20T03:58:08;13.50;99.90
1570;DHT22;778;50.120;8.698;2023-05-20T04:00:36;13.60;99.90
1570;DHT22;778;50.120;8.698;2023-05-20T04:03:05;13.50;99.90
1570;DHT22;778;50.120;8.698;2023-05-20T04:05:35;13.60;99.90
1570;DHT22;778;50.120;8.698;2023-05-20T04:08:10;13.70;99.90
1570;DHT22;778;50.120;8.698;2023-05-20T04:10:40;13.70;99.90
1570;DHT22;778;50.120;8.698;2023-05-20T04:13:12;13.70;99.90
1570;DHT22;778;50.120;8.698;2023-05-20T04:15:41;13.70;99.90
1570;DHT22;778;50.120;8.698;2023-05-20T04:18:11;13.70;99.90
1570;DHT22;778;50.120;8.698;2023-05-20T04:20:40;13.70;99.90
1570;DHT22;778;50.120;8.698;2023-05-20T04:23:10;13.80;99.90
1570;DHT22;778;50.120;8.698;2023-05-20T04:25:39;13.80;99.90
1570;DHT22;778;50.120;8.698;2023-05-20T04:28:08;13.80;99.90
1570;DHT22;778;50.120;8.698;2023-05-20T04:30:41;13.80;99.90
1570;DHT22;778;50.120;8.698;2023-05-20T04:33:11;13.80;99.90
1570;DHT22;778;50.120;8.698;2023-05-20T04:35:41;13.80;99.90
1570;DHT22;778;50.120;8.698;2023-05-20T04:38:10;13.80;99.90
1570;DHT22;778;50.120;8.698;2023-05-20T04:40:38;13.80;99.90
1570;DHT22;778;50.120;8.698;2023-05-20T04:43:07;13.80;99.90
1570;DHT22;778;50.120;8.698;2023-05-20T04:45:35;13.90;99.90
1570;DHT22;778;50.120;8.698;2023-05-20T04:48:05;13.90;99.90
1570;DHT22;778;50.120;8.698;2023-05-20T04:50:36;13.90;99.90
1570;DHT22;778;50.120;8.698;2023-05-20T04:53:06;13.90;99.90
1570;DHT22;778;50.120;8.698;2023-05-20T04:55:34;13.90;99.90
1570;DHT22;778;50.120;8.698;2023-05-20T04:58:04;14.00;99.90
1570;DHT22;778;50.120;8.698;2023-05-20T05:00:34;14.00;99.90
1570;DHT22;778;50.120;8.698;2023-05-20T05:03:02;14.00;99.90
1570;DHT22;778;50.120;8.698;2023-05-20T05:05:33;14.10;99.90
1570;DHT22;778;50.120;8.698;2023-05-20T05:08:03;14.30;99.90
1570;DHT22;778;50.120;8.698;2023-05-20T05:10:34;14.30;99.90
1570;DHT22;778;50.120;8.698;2023-05-20T05:13:03;14.30;99.90
1570;DHT22;778;50.120;8.698;2023-05-20T05:15:32;14.40;99.90
1570;DHT22;778;50.120;8.698;2023-05-20T05:18:02;14.50;99.90
1570;DHT22;778;50.120;8.698;2023-05-20T05:20:33;14.50;99.90
1570;DHT22;778;50.120;8.698;2023-05-20T05:23:02;14.60;99.90
1570;DHT22;778;50.120;8.698;2023-05-20T05:25:31;14.70;99.90
1570;DHT22;778;50.120;8.698;2023-05-20T05:28:00;14.90;99.90
1570;DHT22;778;50.120;8.698;2023-05-20T05:30:29;15.20;99.90
1570;DHT22;778;50.120;8.698;2023-05-20T05:32:59;15.60;99.90
1570;DHT22;778;50.120;8.698;2023-05-20T05:35:27;16.00;99.90
1570;DHT22;778;50.120;8.698;2023-05-20T05:37:57;16.10;99.90
1570;DHT22;778;50.120;8.698;2023-05-20T05:40:26;16.10;99.90
1570;DHT22;778;50.120;8.698;2023-05-20T05:42:54;16.20;99.90
1570;DHT22;778;50.120;8.698;2023-05-20T05:45:24;16.10;99.90
1570;DHT22;778;50.120;8.698;2023-05-20T05:47:53;16.00;99.90
1570;DHT22;778;50.120;8.698;2023-05-20T05:50:21;15.90;99.90
1570;DHT22;778;50.120;8.698;2023-05-20T05:52:50;15.80;99.90
1570;DHT22;778;50.120;8.698;2023-05-20T05:55:21;15.80;99.90
1570;DHT22;778;50.120;8.698;2023-05-20T05:57:50;15.70;99.90
1570;DHT22;778;50.120;8.698;2023-05-20T06:00:19;15.70;99.90
1570;DHT22;778;50.120;8.698;2023-05-20T06:02:48;15.60;99.90
1570;DHT22;778;50.120;8.698;2023-05-20T06:05:28;15.40;99.90
1570;DHT22;778;50.120;8.698;2023-05-20T06:07:58;15.30;99.90
1570;DHT22;778;50.120;8.698;2023-05-20T06:10:28;15.20;99.90
1570;DHT22;778;50.120;8.698;2023-05-20T06:12:57;15.20;99.90
1570;DHT22;778;50.120;8.698;2023-05-20T06:15:26;15.20;99.90
1570;DHT22;778;50.120;8.698;2023-05-20T06:17:55;15.30;99.90
1570;DHT22;778;50.120;8.698;2023-05-20T06:20:25;15.20;99.90
1570;DHT22;778;50.120;8.698;2023-05-20T06:22:54;15.10;99.90
1570;DHT22;778;50.120;8.698;2023-05-20T06:25:28;15.10;99.90
1570;DHT22;778;50.120;8.698;2023-05-20T06:27:56;15.00;99.90
1570;DHT22;778;50.120;8.698;2023-05-20T06:30:25;14.90;99.90
1570;DHT22;778;50.120;8.698;2023-05-20T06:32:54;14.90;99.90
1570;DHT22;778;50.120;8.698;2023-05-20T06:35:22;15.00;99.90
1570;DHT22;778;50.120;8.698;2023-05-20T06:37:51;15.00;99.90
1570;DHT22;778;50.120;8.698;2023-05-20T06:40:20;15.00;99.90
1570;DHT22;778;50.120;8.698;2023-05-20T06:42:50;15.00;99.90
1570;DHT22;778;50.120;8.698;2023-05-20T06:45:38;15.00;99.90
1570;DHT22;778;50.120;8.698;2023-05-20T06:48:33;15.10;99.90
1570;DHT22;778;50.120;8.698;2023-05-20T06:51:02;15.10;99.90
1570;DHT22;778;50.120;8.698;2023-05-20T06:53:31;15.20;99.90
1570;DHT22;778;50.120;8.698;2023-05-20T06:55:59;15.30;99.90
1570;DHT22;778;50.120;8.698;2023-05-20T06:58:29;15.30;99.90
1570;DHT22;778;50.120;8.698;2023-05-20T07:00:58;15.40;99.90
1570;DHT22;778;50.120;8.698;2023-05-20T07:03:26;15.50;99.90
1570;DHT22;778;50.120;8.698;2023-05-20T07:05:55;15.50;99.90
1570;DHT22;778;50.120;8.698;2023-05-20T07:08:24;15.60;99.90
1570;DHT22;778;50.120;8.698;2023-05-20T07:10:54;15.60;99.90
1570;DHT22;778;50.120;8.698;2023-05-20T07:13:23;15.70;99.90
1570;DHT22;778;50.120;8.698;2023-05-20T07:15:53;15.70;99.90
1570;DHT22;778;50.120;8.698;2023-05-20T07:18:22;15.70;99.90
1570;DHT22;778;50.120;8.698;2023-05-20T07:20:52;15.70;99.90
1570;DHT22;778;50.120;8.698;2023-05-20T07:23:43;15.80;99.90
1570;DHT22;778;50.120;8.698;2023-05-20T07:26:11;15.90;99.90
1570;DHT22;778;50.120;8.698;2023-05-20T07:28:40;15.90;99.90
1570;DHT22;778;50.120;8.698;2023-05-20T07:31:09;16.00;99.90
1570;DHT22;778;50.120;8.698;2023-05-20T07:33:42;16.10;99.90
1570;DHT22;778;50.120;8.698;2023-05-20T07:36:11;16.20;99.90
1570;DHT22;778;50.120;8.698;2023-05-20T07:38:41;16.40;99.90
1570;DHT22;778;50.120;8.698;2023-05-20T07:41:28;16.60;99.90
1570;DHT22;778;50.120;8.698;2023-05-20T07:43:56;16.60;99.90
1570;DHT22;778;50.120;8.698;2023-05-20T07:46:26;16.80;99.90
1570;DHT22;778;50.120;8.698;2023-05-20T07:48:55;17.00;99.90
1570;DHT22;778;50.120;8.698;2023-05-20T07:51:24;17.30;99.90
1570;DHT22;778;50.120;8.698;2023-05-20T07:53:53;17.40;99.90
1570;DHT22;778;50.120;8.698;2023-05-20T07:56:21;17.40;99.90
1570;DHT22;778;50.120;8.698;2023-05-20T07:58:54;17.40;99.90
1570;DHT22;778;50.120;8.698;2023-05-20T08:01:28;17.50;99.90
1570;DHT22;778;50.120;8.698;2023-05-20T08:03:58;17.60;99.90
1570;DHT22;778;50.120;8.698;2023-05-20T08:06:27;17.80;99.90
1570;DHT22;778;50.120;8.698;2023-05-20T08:08:57;18.10;99.90
1570;DHT22;778;50.120;8.698;2023-05-20T08:11:30;18.30;99.90
1570;DHT22;778;50.120;8.698;2023-05-20T08:13:59;18.40;99.90
1570;DHT22;778;50.120;8.698;2023-05-20T08:16:34;18.50;99.90
1570;DHT22;778;50.120;8.698;2023-05-20T08:19:03;18.70;99.90
1570;DHT22;778;50.120;8.698;2023-05-20T08:21:31;18.80;99.90
1570;DHT22;778;50.120;8.698;2023-05-20T08:24:01;18.80;99.90
1570;DHT22;778;50.120;8.698;2023-05-20T08:26:30;18.90;99.90
1570;DHT22;778;50.120;8.698;2023-05-20T08:28:58;18.70;99.90
1570;DHT22;778;50.120;8.698;2023-05-20T08:31:27;18.50;99.90
1570;DHT22;778;50.120;8.698;2023-05-20T08:33:57;18.60;99.90
1570;DHT22;778;50.120;8.698;2023-05-20T08:36:26;18.70;99.90
1570;DHT22;778;50.120;8.698;2023-05-20T08:38:55;18.90;99.90
1570;DHT22;778;50.120;8.698;2023-05-20T08:41:24;19.30;99.90
1570;DHT22;778;50.120;8.698;2023-05-20T08:43:52;19.80;99.90
1570;DHT22;778;50.120;8.698;2023-05-20T08:46:22;20.20;99.90
1570;DHT22;778;50.120;8.698;2023-05-20T08:48:51;20.80;99.90
1570;DHT22;778;50.120;8.698;2023-05-20T08:51:21;21.20;99.90
1570;DHT22;778;50.120;8.698;2023-05-20T08:53:51;21.00;99.90
1570;DHT22;778;50.120;8.698;2023-05-20T08:56:20;20.40;99.90
1570;DHT22;778;50.120;8.698;2023-05-20T08:58:49;19.60;99.90
1570;DHT22;778;50.120;8.698;2023-05-20T09:01:17;19.30;99.90
1570;DHT22;778;50.120;8.698;2023-05-20T09:03:46;19.10;99.90
1570;DHT22;778;50.120;8.698;2023-05-20T09:06:16;18.60;99.90
1570;DHT22;778;50.120;8.698;2023-05-20T09:08:49;18.80;99.90
1570;DHT22;778;50.120;8.698;2023-05-20T09:11:19;18.80;99.90
1570;DHT22;778;50.120;8.698;2023-05-20T09:13:49;18.70;99.90
1570;DHT22;778;50.120;8.698;2023-05-20T09:16:17;18.70;99.90
1570;DHT22;778;50.120;8.698;2023-05-20T09:18:46;18.80;99.90
1570;DHT22;778;50.120;8.698;2023-05-20T09:21:14;18.80;99.90
1570;DHT22;778;50.120;8.698;2023-05-20T09:23:46;18.80;99.90
1570;DHT22;778;50.120;8.698;2023-05-20T09:26:18;18.60;99.90
1570;DHT22;778;50.120;8.698;2023-05-20T09:28:48;18.70;99.90
1570;DHT22;778;50.120;8.698;2023-05-20T09:31:16;18.80;99.90
1570;DHT22;778;50.120;8.698;2023-05-20T09:33:45;19.00;99.90
1570;DHT22;778;50.120;8.698;2023-05-20T09:36:14;19.40;99.90
1570;DHT22;778;50.120;8.698;2023-05-20T09:38:43;19.50;99.90
1570;DHT22;778;50.120;8.698;2023-05-20T09:41:13;19.70;99.90
1570;DHT22;778;50.120;8.698;2023-05-20T09:43:44;20.00;99.90
1570;DHT22;778;50.120;8.698;2023-05-20T09:46:12;20.00;99.90
1570;DHT22;778;50.120;8.698;2023-05-20T09:48:42;19.90;99.90
1570;DHT22;778;50.120;8.698;2023-05-20T09:51:12;20.30;99.90
1570;DHT22;778;50.120;8.698;2023-05-20T09:53:41;20.20;99.90
1570;DHT22;778;50.120;8.698;2023-05-20T09:56:10;20.60;99.90
1570;DHT22;778;50.120;8.698;2023-05-20T09:58:39;21.00;99.90
1570;DHT22;778;50.120;8.698;2023-05-20T10:01:11;21.30;99.90
1570;DHT22;778;50.120;8.698;2023-05-20T10:03:39;21.40;99.90
1570;DHT22;778;50.120;8.698;2023-05-20T10:06:27;21.30;99.90
1570;DHT22;778;50.120;8.698;2023-05-20T10:09:17;21.10;99.90
1570;DHT22;778;50.120;8.698;2023-05-20T10:12:02;20.80;99.90
1570;DHT22;778;50.120;8.698;2023-05-20T10:14:42;20.80;99.90
1570;DHT22;778;50.120;8.698;2023-05-20T10:17:24;20.30;99.90
1570;DHT22;778;50.120;8.698;2023-05-20T10:19:57;20.10;99.90
1570;DHT22;778;50.120;8.698;2023-05-20T10:22:27;20.20;99.90
1570;DHT22;778;50.120;8.698;2023-05-20T10:24:58;20.40;99.90
1570;DHT22;778;50.120;8.698;2023-05-20T10:27:27;20.50;99.90
1570;DHT22;778;50.120;8.698;2023-05-20T10:29:56;20.50;99.90
1570;DHT22;778;50.120;8.698;2023-05-20T10:32:27;20.90;99.90
1570;DHT22;778;50.120;8.698;2023-05-20T10:35:01;21.20;99.90
1570;DHT22;778;50.120;8.698;2023-05-20T10:37:32;21.20;99.90
1570;DHT22;778;50.120;8.698;2023-05-20T10:40:09;20.60;99.90
1570;DHT22;778;50.120;8.698;2023-05-20T10:42:39;20.60;99.90
1570;DHT22;778;50.120;8.698;2023-05-20T10:45:08;21.10;99.90
1570;DHT22;778;50.120;8.698;2023-05-20T10:47:53;21.30;99.90
1570;DHT22;778;50.120;8.698;2023-05-20T10:50:26;21.80;99.90
1570;DHT22;778;50.120;8.698;2023-05-20T10:53:02;21.50;99.90
1570;DHT22;778;50.120;8.698;2023-05-20T10:55:36;21.30;99.90
1570;DHT22;778;50.120;8.698;2023-05-20T10:58:05;21.30;99.90
1570;DHT22;778;50.120;8.698;2023-05-20T11:00:34;21.50;99.90
1570;DHT22;778;50.120;8.698;2023-05-20T11:03:06;21.60;99.90
1570;DHT22;778;50.120;8.698;2023-05-20T11:05:35;21.70;99.90
1570;DHT22;778;50.120;8.698;2023-05-20T11:08:05;22.00;99.90
1570;DHT22;778;50.120;8.698;2023-05-20T11:10:50;21.50;99.90
1570;DHT22;778;50.120;8.698;2023-05-20T11:13:18;21.40;99.90
1570;DHT22;778;50.120;8.698;2023-05-20T11:15:48;21.00;99.90
1570;DHT22;778;50.120;8.698;2023-05-20T11:18:18;20.70;99.90
1570;DHT22;778;50.120;8.698;2023-05-20T11:20:46;20.90;99.90
1570;DHT22;778;50.120;8.698;2023-05-20T11:23:15;21.10;99.90
1570;DHT22;778;50.120;8.698;2023-05-20T11:25:44;21.40;99.90
1570;DHT22;778;50.120;8.698;2023-05-20T11:28:12;21.00;99.90
1570;DHT22;778;50.120;8.698;2023-05-20T11:30:42;21.00;99.90
1570;DHT22;778;50.120;8.698;2023-05-20T11:33:11;21.30;99.90
1570;DHT22;778;50.120;8.698;2023-05-20T11:35:45;21.20;99.90
1570;DHT22;778;50.120;8.698;2023-05-20T11:38:16;21.20;99.90
1570;DHT22;778;50.120;8.698;2023-05-20T11:40:50;21.30;99.90
1570;DHT22;778;50.120;8.698;2023-05-20T11:43:20;21.50;99.90
1570;DHT22;778;50.120;8.698;2023-05-20T11:45:52;21.70;99.90
1570;DHT22;778;50.120;8.698;2023-05-20T11:48:22;21.80;99.90
1570;DHT22;778;50.120;8.698;2023-05-20T11:50:54;21.70;99.90
1570;DHT22;778;50.120;8.698;2023-05-20T11:53:25;21.60;99.90
1570;DHT22;778;50.120;8.698;2023-05-20T11:55:55;21.30;99.90
1570;DHT22;778;50.120;8.698;2023-05-20T11:58:26;21.10;99.90
1570;DHT22;778;50.120;8.698;2023-05-20T12:00:56;21.20;99.90
1570;DHT22;778;50.120;8.698;2023-05-20T12:03:39;21.20;99.90
1570;DHT22;778;50.120;8.698;2023-05-20T12:06:12;21.40;99.90
1570;DHT22;778;50.120;8.698;2023-05-20T12:08:40;21.30;99.90
1570;DHT22;778;50.120;8.698;2023-05-20T12:11:08;21.30;99.90
1570;DHT22;778;50.120;8.698;2023-05-20T12:13:37;21.10;99.90
1570;DHT22;778;50.120;8.698;2023-05-20T12:16:06;21.00;99.90
1570;DHT22;778;50.120;8.698;2023-05-20T12:18:35;21.10;99.90
1570;DHT22;778;50.120;8.698;2023-05-20T12:21:03;21.10;99.90
1570;DHT22;778;50.120;8.698;2023-05-20T12:23:33;21.10;99.90
1570;DHT22;778;50.120;8.698;2023-05-20T12:26:01;21.10;99.90
1570;DHT22;778;50.120;8.698;2023-05-20T12:28:30;21.10;99.90
1570;DHT22;778;50.120;8.698;2023-05-20T12:30:59;21.20;99.90
1570;DHT22;778;50.120;8.698;2023-05-20T12:33:27;21.00;99.90
1570;DHT22;778;50.120;8.698;2023-05-20T12:35:56;21.00;99.90
1570;DHT22;778;50.120;8.698;2023-05-20T12:38:24;21.00;99.90
1570;DHT22;778;50.120;8.698;2023-05-20T12:40:54;20.60;99.90
1570;DHT22;778;50.120;8.698;2023-05-20T12:43:22;20.60;99.90
1570;DHT22;778;50.120;8.698;2023-05-20T12:45:51;20.80;99.90
1570;DHT22;778;50.120;8.698;2023-05-20T12:48:19;20.80;99.90
1570;DHT22;778;50.120;8.698;2023-05-20T12:50:48;20.90;99.90
1570;DHT22;778;50.120;8.698;2023-05-20T12:53:16;20.80;99.90
1570;DHT22;778;50.120;8.698;2023-05-20T12:55:45;20.90;99.90
1570;DHT22;778;50.120;8.698;2023-05-20T12:58:15;21.00;99.90
1570;DHT22;778;50.120;8.698;2023-05-20T13:00:43;21.10;99.90
1570;DHT22;778;50.120;8.698;2023-05-20T13:03:12;21.00;99.90
1570;DHT22;778;50.120;8.698;2023-05-20T13:05:40;21.10;99.90
1570;DHT22;778;50.120;8.698;2023-05-20T13:08:09;20.80;99.90
1570;DHT22;778;50.120;8.698;2023-05-20T13:10:38;20.70;99.90
1570;DHT22;778;50.120;8.698;2023-05-20T13:13:07;20.50;99.90
1570;DHT22;778;50.120;8.698;2023-05-20T13:15:37;20.60;99.90
1570;DHT22;778;50.120;8.698;2023-05-20T13:18:05;20.70;99.90
1570;DHT22;778;50.120;8.698;2023-05-20T13:20:35;20.80;99.90
1570;DHT22;778;50.120;8.698;2023-05-20T13:23:04;20.70;99.90
1570;DHT22;778;50.120;8.698;2023-05-20T13:25:34;20.70;99.90
1570;DHT22;778;50.120;8.698;2023-05-20T13:28:03;20.70;99.90
1570;DHT22;778;50.120;8.698;2023-05-20T13:30:32;20.70;99.90
1570;DHT22;778;50.120;8.698;2023-05-20T13:33:02;20.80;99.90
1570;DHT22;778;50.120;8.698;2023-05-20T13:35:31;20.90;99.90
1570;DHT22;778;50.120;8.698;2023-05-20T13:38:00;20.80;99.90
1570;DHT22;778;50.120;8.698;2023-05-20T13:40:29;20.40;99.90
1570;DHT22;778;50.120;8.698;2023-05-20T13:42:57;20.40;99.90
1570;DHT22;778;50.120;8.698;2023-05-20T13:45:26;20.50;99.90
1570;DHT22;778;50.120;8.698;2023-05-20T13:47:55;20.60;99.90
1570;DHT22;778;50.120;8.698;2023-05-20T13:50:25;20.70;99.90
1570;DHT22;778;50.120;8.698;2023-05-20T13:52:54;20.50;99.90
1570;DHT22;778;50.120;8.698;2023-05-20T13:55:22;20.60;99.90
1570;DHT22;778;50.120;8.698;2023-05-20T13:57:51;20.60;99.90
1570;DHT22;778;50.120;8.698;2023-05-20T14:00:20;20.60;99.90
1570;DHT22;778;50.120;8.698;2023-05-20T14:02:48;20.70;99.90
1570;DHT22;778;50.120;8.698;2023-05-20T14:05:17;20.60;99.90
1570;DHT22;778;50.120;8.698;2023-05-20T14:07:47;20.70;99.90
1570;DHT22;778;50.120;8.698;2023-05-20T14:10:15;20.70;99.90
1570;DHT22;778;50.120;8.698;2023-05-20T14:12:44;20.80;99.90
1570;DHT22;778;50.120;8.698;2023-05-20T14:15:14;20.90;99.90
1570;DHT22;778;50.120;8.698;2023-05-20T14:17:42;20.80;99.90
1570;DHT22;778;50.120;8.698;2023-05-20T14:20:11;20.90;99.90
1570;DHT22;778;50.120;8.698;2023-05-20T14:22:40;21.00;99.90
1570;DHT22;778;50.120;8.698;2023-05-20T14:25:10;21.00;99.90
1570;DHT22;778;50.120;8.698;2023-05-20T14:27:38;20.90;99.90
1570;DHT22;778;50.120;8.698;2023-05-20T14:30:08;20.90;99.90
1570;DHT22;778;50.120;8.698;2023-05-20T14:32:37;20.90;99.90
1570;DHT22;778;50.120;8.698;2023-05-20T14:35:07;21.00;99.90
1570;DHT22;778;50.120;8.698;2023-05-20T14:37:36;20.90;99.90
1570;DHT22;778;50.120;8.698;2023-05-20T14:40:05;21.00;99.90
1570;DHT22;778;50.120;8.698;2023-05-20T14:42:36;20.90;99.90
1570;DHT22;778;50.120;8.698;2023-05-20T14:45:05;21.10;99.90
1570;DHT22;778;50.120;8.698;2023-05-20T14:47:34;21.20;99.90
1570;DHT22;778;50.120;8.698;2023-05-20T14:50:06;21.30;99.90
1570;DHT22;778;50.120;8.698;2023-05-20T14:52:35;21.50;99.90
1570;DHT22;778;50.120;8.698;2023-05-20T14:55:04;21.50;99.90
1570;DHT22;778;50.120;8.698;2023-05-20T14:57:34;21.60;99.90
1570;DHT22;778;50.120;8.698;2023-05-20T15:00:04;21.60;99.90
1570;DHT22;778;50.120;8.698;2023-05-20T15:02:33;21.60;99.90
1570;DHT22;778;50.120;8.698;2023-05-20T15:05:02;21.70;99.90
1570;DHT22;778;50.120;8.698;2023-05-20T15:07:31;21.70;99.90
1570;DHT22;778;50.120;8.698;2023-05-20T15:10:00;21.60;99.90
1570;DHT22;778;50.120;8.698;2023-05-20T15:12:28;21.70;99.90
1570;DHT22;778;50.120;8.698;2023-05-20T15:14:58;21.60;99.90
1570;DHT22;778;50.120;8.698;2023-05-20T15:17:26;21.70;99.90
1570;DHT22;778;50.120;8.698;2023-05-20T15:19:55;21.70;99.90
1570;DHT22;778;50.120;8.698;2023-05-20T15:22:23;21.70;99.90
1570;DHT22;778;50.120;8.698;2023-05-20T15:24:52;21.80;99.90
1570;DHT22;778;50.120;8.698;2023-05-20T15:27:20;21.70;99.90
1570;DHT22;778;50.120;8.698;2023-05-20T15:29:49;21.60;99.90
1570;DHT22;778;50.120;8.698;2023-05-20T15:32:19;21.50;99.90
1570;DHT22;778;50.120;8.698;2023-05-20T15:34:47;21.40;99.90
1570;DHT22;778;50.120;8.698;2023-05-20T15:37:16;21.50;99.90
1570;DHT22;778;50.120;8.698;2023-05-20T15:39:44;21.50;99.90
1570;DHT22;778;50.120;8.698;2023-05-20T15:42:13;21.40;99.90
1570;DHT22;778;50.120;8.698;2023-05-20T15:44:44;21.20;99.90
1570;DHT22;778;50.120;8.698;2023-05-20T15:47:13;21.20;99.90
1570;DHT22;778;50.120;8.698;2023-05-20T15:49:43;21.20;99.90
1570;DHT22;778;50.120;8.698;2023-05-20T15:52:11;21.20;99.90
1570;DHT22;778;50.120;8.698;2023-05-20T15:54:40;21.20;99.90
1570;DHT22;778;50.120;8.698;2023-05-20T15:57:09;21.10;99.90
1570;DHT22;778;50.120;8.698;2023-05-20T15:59:37;21.10;99.90
1570;DHT22;778;50.120;8.698;2023-05-20T16:02:06;21.00;99.90
1570;DHT22;778;50.120;8.698;2023-05-20T16:04:34;21.10;99.90
1570;DHT22;778;50.120;8.698;2023-05-20T16:07:04;21.20;99.90
1570;DHT22;778;50.120;8.698;2023-05-20T16:09:33;21.30;99.90
1570;DHT22;778;50.120;8.698;2023-05-20T16:12:01;21.10;99.90
1570;DHT22;778;50.120;8.698;2023-05-20T16:14:30;21.20;99.90
1570;DHT22;778;50.120;8.698;2023-05-20T16:16:59;21.10;99.90
1570;DHT22;778;50.120;8.698;2023-05-20T16:19:27;20.90;99.90
1570;DHT22;778;50.120;8.698;2023-05-20T16:21:56;20.90;99.90
1570;DHT22;778;50.120;8.698;2023-05-20T16:24:26;20.80;99.90
1570;DHT22;778;50.120;8.698;2023-05-20T16:26:54;20.80;99.90
1570;DHT22;778;50.120;8.698;2023-05-20T16:29:22;20.80;99.90
1570;DHT22;778;50.120;8.698;2023-05-20T16:31:51;20.80;99.90
1570;DHT22;778;50.120;8.698;2023-05-20T16:34:19;20.80;99.90